createdAt,value
2022-11-10T00:03:36.222Z,0.85
2022-11-10T00:08:57.222Z,0.98
2022-11-10T00:14:36.207Z,1.20
2022-11-10T00:19:59.127Z,0.80
2022-11-10T00:25:20.609Z,0.85
2022-11-10T00:30:46.540Z,0.77
2022-11-10T00:36:10.109Z,0.80
2022-11-10T00:41:31.560Z,0.90
2022-11-10T00:46:52.923Z,0.98
2022-11-10T00:52:15.704Z,0.80
2022-11-10T00:57:37.028Z,0.68
2022-11-10T01:02:58.748Z,0.77
2022-11-10T01:08:21.198Z,0.80
2022-11-10T01:13:43.459Z,1.08
2022-11-10T01:19:04.653Z,0.90
2022-11-10T01:24:27.406Z,0.90
2022-11-10T01:29:48.551Z,0.57
2022-11-10T01:35:10.501Z,0.80
2022-11-10T01:40:39.729Z,0.80
2022-11-10T01:46:01.780Z,0.70
2022-11-10T01:51:26.109Z,0.82
2022-11-10T01:56:58.922Z,0.82
2022-11-10T02:02:23.023Z,1.60
2022-11-10T02:07:44.469Z,0.80
2022-11-10T02:13:13.257Z,0.60
2022-11-10T02:18:34.544Z,1.00
2022-11-10T02:23:57.260Z,0.70
2022-11-10T02:29:18.728Z,0.90
2022-11-10T02:34:42.543Z,0.90
2022-11-10T02:40:05.711Z,0.85
2022-11-10T02:45:26.913Z,0.45
2022-11-10T02:50:50.371Z,0.70
2022-11-10T02:56:13.408Z,0.88
2022-11-10T03:01:34.798Z,0.88
2022-11-10T03:06:56.119Z,0.70
2022-11-10T03:12:19.141Z,0.93
2022-11-10T03:17:40.323Z,1.88
2022-11-10T03:23:02.843Z,0.90
2022-11-10T03:28:25.496Z,1.08
2022-11-10T03:33:46.942Z,1.30
2022-11-10T03:39:08.316Z,0.70
2022-11-10T03:44:31.143Z,0.82
2022-11-10T03:49:52.579Z,0.73
2022-11-10T03:55:17.847Z,0.70
2022-11-10T04:00:43.248Z,1.00
2022-11-10T04:06:22.468Z,0.80
2022-11-10T04:12:01.505Z,1.05
2022-11-10T04:17:24.242Z,0.90
2022-11-10T04:23:03.287Z,0.90
2022-11-10T04:28:24.776Z,0.73
2022-11-10T04:33:48.192Z,0.75
2022-11-10T04:39:10.007Z,0.60
2022-11-10T04:44:31.515Z,0.68
2022-11-10T04:49:54.129Z,0.57
2022-11-10T04:55:16.172Z,0.73
2022-11-10T05:00:38.073Z,0.77
2022-11-10T05:06:00.452Z,0.90
2022-11-10T05:11:21.968Z,0.50
2022-11-10T05:16:43.448Z,0.80
2022-11-10T05:22:07.630Z,0.70
2022-11-10T05:27:29.981Z,0.90
2022-11-10T05:32:51.238Z,0.80
2022-11-10T05:38:14.068Z,0.90
2022-11-10T05:43:35.397Z,0.80
2022-11-10T05:48:56.725Z,1.00
2022-11-10T05:54:19.615Z,1.23
2022-11-10T05:59:40.793Z,0.80
2022-11-10T06:05:04.628Z,0.93
2022-11-10T06:10:27.365Z,1.00
2022-11-10T06:15:50.594Z,1.00
2022-11-10T06:21:12.129Z,0.80
2022-11-10T06:26:34.940Z,1.13
2022-11-10T06:31:56.218Z,0.80
2022-11-10T06:37:17.735Z,1.70
2022-11-10T06:42:40.535Z,1.13
2022-11-10T06:48:03.047Z,0.85
2022-11-10T06:53:27.026Z,1.30
2022-11-10T06:58:50.244Z,0.80
2022-11-10T07:04:19.733Z,1.08
2022-11-10T07:09:42.361Z,0.90
2022-11-10T07:15:06.806Z,1.17
2022-11-10T07:20:28.409Z,1.15
2022-11-10T07:25:49.599Z,1.10
2022-11-10T07:31:12.603Z,0.90
2022-11-10T07:36:33.684Z,1.20
2022-11-10T07:41:55.200Z,1.48
2022-11-10T07:47:18.039Z,1.13
2022-11-10T07:52:39.440Z,1.00
2022-11-10T07:58:01.241Z,1.02
2022-11-10T08:03:23.989Z,1.20
2022-11-10T08:08:47.029Z,1.15
2022-11-10T08:14:08.318Z,1.30
2022-11-10T08:19:31.050Z,1.35
2022-11-10T08:24:52.489Z,1.35
2022-11-10T08:30:14.314Z,1.40
2022-11-10T08:35:38.414Z,1.45
2022-11-10T08:41:02.147Z,4.28
2022-11-10T08:46:23.129Z,1.55
2022-11-10T08:51:45.930Z,1.40
2022-11-10T08:57:08.503Z,1.67
2022-11-10T09:02:30.401Z,1.70
2022-11-10T09:07:53.131Z,1.55
2022-11-10T09:13:15.755Z,1.10
2022-11-10T09:18:37.954Z,1.00
2022-11-10T09:24:00.439Z,1.52
2022-11-10T09:29:22.891Z,1.45
2022-11-10T09:34:45.650Z,1.20
2022-11-10T09:40:17.878Z,2.28
2022-11-10T09:45:41.631Z,1.42
2022-11-10T09:51:05.675Z,1.33
2022-11-10T09:56:33.162Z,1.20
2022-11-10T10:01:59.135Z,1.30
2022-11-10T10:07:24.111Z,1.50
2022-11-10T10:13:01.716Z,1.35
2022-11-10T10:18:30.572Z,1.75
2022-11-10T10:24:09.551Z,1.40
2022-11-10T10:29:37.882Z,1.50
2022-11-10T10:34:59.253Z,1.40
2022-11-10T10:40:23.314Z,1.13
2022-11-10T10:46:04.248Z,1.40
2022-11-10T10:51:31.952Z,1.33
2022-11-10T10:57:02.227Z,1.63
2022-11-10T11:02:28.036Z,1.40
2022-11-10T11:07:56.203Z,1.33
2022-11-10T11:13:25.554Z,1.40
2022-11-10T11:18:48.307Z,1.40
2022-11-10T11:24:20.990Z,1.65
2022-11-10T11:30:05.498Z,1.75
2022-11-10T11:35:33.694Z,1.50
2022-11-10T11:41:09.775Z,1.05
2022-11-10T11:46:38.135Z,1.70
2022-11-10T11:52:08.727Z,1.17
2022-11-10T11:57:39.997Z,1.63
2022-11-10T12:03:39.956Z,1.55
2022-11-10T12:09:07.056Z,1.20
2022-11-10T12:14:36.711Z,1.23
2022-11-10T12:20:02.844Z,1.25
2022-11-10T12:25:29.803Z,1.50
2022-11-10T12:30:57.677Z,1.40
2022-11-10T12:36:23.917Z,1.08
2022-11-10T12:41:48.052Z,1.20
2022-11-10T12:47:13.321Z,1.20
2022-11-10T12:52:38.528Z,1.15
2022-11-10T12:58:01.967Z,1.30
2022-11-10T13:03:29.135Z,1.25
2022-11-10T13:08:50.723Z,1.45
2022-11-10T13:14:25.072Z,1.13
2022-11-10T13:19:53.406Z,1.30
2022-11-10T13:26:00.716Z,1.05
2022-11-10T13:31:53.032Z,1.00
2022-11-10T13:37:51.800Z,1.52
2022-11-10T13:43:27.234Z,1.17
2022-11-10T13:49:03.277Z,0.73
2022-11-10T13:54:51.049Z,1.20
2022-11-10T14:00:27.247Z,1.15
2022-11-10T14:06:09.072Z,1.20
2022-11-10T14:11:35.760Z,1.60
2022-11-10T14:16:57.578Z,1.15
2022-11-10T14:22:24.083Z,1.00
2022-11-10T14:27:45.705Z,1.38
2022-11-10T14:33:10.776Z,1.40
2022-11-10T14:38:35.904Z,1.08
2022-11-10T14:44:01.727Z,1.23
2022-11-10T14:49:24.909Z,1.00
2022-11-10T14:54:47.745Z,0.98
2022-11-10T15:00:15.540Z,1.13
2022-11-10T15:05:36.876Z,1.00
2022-11-10T15:10:59.387Z,2.00
2022-11-10T15:16:26.117Z,1.30
2022-11-10T15:21:47.950Z,1.42
2022-11-10T15:27:14.913Z,1.30
2022-11-10T15:32:37.547Z,0.80
2022-11-10T15:38:03.358Z,1.23
2022-11-10T15:43:29.109Z,1.30
2022-11-10T15:48:51.956Z,1.10
2022-11-10T15:54:13.179Z,1.45
2022-11-10T15:59:36.087Z,1.17
2022-11-10T16:05:00.046Z,1.40
2022-11-10T16:10:22.132Z,1.13
2022-11-10T16:15:45.182Z,1.40
2022-11-10T16:21:06.860Z,1.45
2022-11-10T16:26:28.331Z,1.17
2022-11-10T16:31:51.126Z,1.10
2022-11-10T16:37:13.765Z,1.10
2022-11-10T16:42:35.272Z,0.90
2022-11-10T16:47:58.686Z,1.15
2022-11-10T16:53:23.922Z,1.23
2022-11-10T16:58:45.087Z,1.00
2022-11-10T17:04:09.857Z,1.00
2022-11-10T17:09:31.732Z,1.20
2022-11-10T17:14:53.178Z,1.33
2022-11-10T17:20:21.216Z,1.20
2022-11-10T17:25:43.034Z,1.35
2022-11-10T17:31:04.345Z,1.10
2022-11-10T17:36:27.110Z,1.35
2022-11-10T17:41:48.909Z,1.20
2022-11-10T17:47:10.322Z,1.40
2022-11-10T17:52:33.279Z,1.48
2022-11-10T17:57:54.917Z,1.40
2022-11-10T18:03:17.750Z,1.85
2022-11-10T18:08:40.340Z,1.77
2022-11-10T18:14:02.321Z,1.58
2022-11-10T18:19:23.680Z,1.77
2022-11-10T18:24:46.725Z,1.60
2022-11-10T18:30:09.255Z,1.20
2022-11-10T18:35:31.162Z,1.60
2022-11-10T18:40:53.997Z,1.88
2022-11-10T18:46:15.201Z,1.45
2022-11-10T18:51:36.746Z,1.65
2022-11-10T18:56:59.197Z,1.40
2022-11-10T19:02:20.657Z,1.80
2022-11-10T19:07:42.091Z,1.98
2022-11-10T19:13:04.858Z,1.83
2022-11-10T19:18:26.253Z,1.95
2022-11-10T19:23:47.694Z,2.10
2022-11-10T19:29:10.586Z,1.90
2022-11-10T19:34:31.925Z,1.58
2022-11-10T19:39:53.334Z,1.60
2022-11-10T19:45:19.324Z,2.17
2022-11-10T19:50:45.164Z,1.60
2022-11-10T19:56:10.926Z,2.13
2022-11-10T20:01:33.621Z,2.40
2022-11-10T20:07:09.215Z,2.20
2022-11-10T20:12:34.464Z,1.90
2022-11-10T20:17:57.152Z,1.80
2022-11-10T20:23:19.751Z,1.88
2022-11-10T20:28:44.678Z,2.25
2022-11-10T20:34:07.117Z,2.00
2022-11-10T20:39:28.675Z,1.77
2022-11-10T20:44:50.139Z,1.63
2022-11-10T20:50:17.123Z,1.52
2022-11-10T20:55:55.657Z,2.00
2022-11-10T21:01:18.631Z,2.20
2022-11-10T21:06:41.339Z,1.73
2022-11-10T21:12:20.535Z,1.50
2022-11-10T21:17:44.253Z,1.65
2022-11-10T21:23:07.126Z,2.15
2022-11-10T21:28:28.578Z,1.90
2022-11-10T21:33:50.190Z,2.28
2022-11-10T21:39:12.850Z,1.80
2022-11-10T21:44:39.159Z,2.10
2022-11-10T21:50:00.585Z,1.90
2022-11-10T21:55:23.243Z,1.95
2022-11-10T22:00:45.076Z,2.10
2022-11-10T22:06:07.353Z,1.98
2022-11-10T22:11:47.884Z,1.98
2022-11-10T22:17:32.435Z,2.47
2022-11-10T22:22:53.949Z,2.22
2022-11-10T22:28:16.785Z,2.30
2022-11-10T22:33:40.329Z,2.60
2022-11-10T22:39:03.615Z,2.40
2022-11-10T22:44:26.718Z,1.98
2022-11-10T22:49:47.853Z,2.30
2022-11-10T22:55:09.627Z,2.17
2022-11-10T23:00:32.239Z,2.00
2022-11-10T23:05:56.455Z,2.10
2022-11-10T23:11:19.442Z,2.45
2022-11-10T23:16:42.383Z,2.63
2022-11-10T23:22:03.715Z,2.10
2022-11-10T23:27:25.188Z,2.42
2022-11-10T23:32:47.876Z,2.45
2022-11-10T23:38:09.223Z,2.35
2022-11-10T23:43:35.754Z,2.50
2022-11-10T23:48:58.420Z,2.35
2022-11-10T23:54:19.974Z,2.15
2022-11-10T23:59:41.179Z,2.58
